ラスベガス の空港の天気 - METARとTAF

マッカラン国際空港 ( KLAS / LAS ) - アメリカ合衆国 ネバダ州ラスベガス
飛行場実況気象(Metar)
観測時間02/20 06:56 PST (02/20 14:56 UTC)
風向・風速南南東 4m/s
視程10km以上
天気現象
全天の8割程度の雲 雲底高度 1220m
全天を覆う雲 雲底高度 1520m
気温13.3℃
湿度62%
気圧1018.5hPa
METARKLAS 201456Z 16007KT 10SM BKN040 OVC050 13/06 A3010 RMK AO2 PRESRR SLP185 T01330061 53015
過去の天気等 Google飛行場航空写真 Wunderground天気予報

過去48時間のMETAR

飛行場予報(TAF)
発表時間: 2/20 06:38 PST (2/20 14:38 UTC)
予報対象時間: 20日7時 PST ~ 21日4時 PST
風向・風速南 5m/s
視程10km以上
全天の8割程度の雲 雲底高度 1,220m
全天を覆う雲 雲底高度 1,520m
20日12時 PST から
風向・風速南 6m/s 瞬間風速 10m/s
視程10km以上
全天の4割程度の雲 雲底高度 1,220m
全天の8割程度の雲 雲底高度 1,520m
20日18時 PST から
風向・風速南 5m/s
視程10km以上
全天の4割程度の雲 雲底高度 1,520m
全天の8割程度の雲 雲底高度 2,440m
KLAS 201438Z 2015/2112 18010KT P6SM BKN040 OVC050
FM202000 17012G20KT P6SM SCT040 BKN050
FM210200 18010KT P6SM SCT050 BKN080